This is the latest recevied weather packets stored in our database for station/object YO3IEZ-WX. If no packets are shown the sender has not sent any weather packets the latest 10 day(s).
| Time | Temp. | Humidity | Pressure | Rain* | Wind** | Luminosity | Snow |
|---|---|---|---|---|---|---|---|
| 1777899650 | 22.22° C | 38% | 1004.9 hPa | 0 mm | - | 264 W/m² | - |
| 1777898749 | 22.78° C | 38% | 1005.2 hPa | 0 mm | - | 441 W/m² | - |
| 1777897845 | 23.33° C | 37% | 1005.1 hPa | 0 mm | - | 893 W/m² | - |
| 1777896950 | 22.78° C | 38% | 1005.2 hPa | 0 mm | - | 803 W/m² | - |
| 1777895146 | 21.11° C | 41% | 1005.4 hPa | 0 mm | - | 722 W/m² | - |
| 1777891545 | 21.67° C | 38% | 1005.7 hPa | 0 mm | - | 418 W/m² | - |
| 1777890646 | 21.67° C | 38% | 1005.9 hPa | 0 mm | - | 629 W/m² | - |
| 1777889745 | 21.11° C | 38% | 1005.9 hPa | 0 mm | - | 371 W/m² | - |
| 1777883459 | 20° C | 40% | 1006.5 hPa | 0 mm | - | 770 W/m² | - |
| 1777873552 | 11.67° C | 60% | 1006.2 hPa | 0 mm | - | 318 W/m² | - |
| 1777872684 | 11.11° C | 61% | 1006.4 hPa | 0 mm | - | 257 W/m² | - |
| 1777869948 | 9.44° C | 64% | 1006.4 hPa | 0 mm | - | 225 W/m² | - |
| 1777869052 | 8.89° C | 65% | 1006.4 hPa | 0 mm | - | 155 W/m² | - |
| 1777866352 | 8.33° C | 66% | 1006.5 hPa | 0 mm | - | 46 W/m² | - |
| 1777860054 | 9.44° C | 59% | 1007.3 hPa | 0 mm | - | 0 W/m² | - |
| 1777843867 | 11.67° C | 53% | 1008.5 hPa | 0 mm | - | 0 W/m² | - |
| 1777842944 | 11.67° C | 54% | 1008.6 hPa | 0 mm | - | 0 W/m² | - |
| 1777840266 | 12.22° C | 52% | 1008.8 hPa | 0 mm | - | 0 W/m² | - |
| 1777835747 | 12.78° C | 51% | 1009.4 hPa | 0 mm | - | 0 W/m² | - |
| 1777834850 | 12.22° C | 51% | 1009.3 hPa | 0 mm | - | 0 W/m² | - |
| 1777831248 | 12.78° C | 46% | 1009.1 hPa | 0 mm | - | 0 W/m² | - |
| 1777829457 | 13.33° C | 44% | 1008.9 hPa | 0 mm | - | 0 W/m² | - |
| 1777828549 | 13.89° C | 44% | 1008.9 hPa | 0 mm | - | 9 W/m² | - |
| 1777816845 | 16.11° C | 38% | 1009.5 hPa | 0 mm | - | 552 W/m² | - |
| 1777811449 | 13.89° C | 45% | 1010.8 hPa | 0 mm | - | 265 W/m² | - |
* Rain latest hour (hover to see other rain measurements)
** Current wind speed in m/s (hover to see current wind gust speed)